createdAt,value
2022-09-27T00:02:23.404Z,10.12
2022-09-27T00:05:24.937Z,10.10
2022-09-27T00:08:26.480Z,10.10
2022-09-27T00:11:32.134Z,10.11
2022-09-27T00:14:33.667Z,10.11
2022-09-27T00:17:35.262Z,10.09
2022-09-27T00:20:36.942Z,10.09
2022-09-27T00:23:39.605Z,10.07
2022-09-27T00:26:42.012Z,10.07
2022-09-27T00:29:45.017Z,10.08
2022-09-27T00:32:46.653Z,10.07
2022-09-27T00:35:48.350Z,10.07
2022-09-27T00:38:50.211Z,10.06
2022-09-27T00:41:51.756Z,10.05
2022-09-27T00:45:22.701Z,10.05
2022-09-27T00:48:28.952Z,10.03
2022-09-27T00:51:34.356Z,10.02
2022-09-27T00:54:40.612Z,10.00
2022-09-27T00:57:44.365Z,9.98
2022-09-27T01:00:51.040Z,9.97
2022-09-27T01:04:11.679Z,9.95
2022-09-27T01:07:13.633Z,9.93
2022-09-27T01:10:17.115Z,9.93
2022-09-27T01:13:36.018Z,9.91
2022-09-27T01:17:06.474Z,9.90
2022-09-27T01:20:41.142Z,9.89
2022-09-27T01:23:42.908Z,9.88
2022-09-27T01:26:47.558Z,9.89
2022-09-27T01:30:21.283Z,9.88
2022-09-27T01:33:31.969Z,9.87
2022-09-27T01:37:04.698Z,9.86
2022-09-27T01:40:06.269Z,9.82
2022-09-27T01:43:07.806Z,9.82
2022-09-27T01:46:16.055Z,9.81
2022-09-27T01:49:24.698Z,9.80
2022-09-27T01:52:33.381Z,9.77
2022-09-27T01:55:38.525Z,9.76
2022-09-27T01:58:51.983Z,9.74
2022-09-27T02:01:54.838Z,9.73
2022-09-27T02:05:03.307Z,9.72
2022-09-27T02:08:15.212Z,9.69
2022-09-27T02:11:17.321Z,9.68
2022-09-27T02:14:23.820Z,9.66
2022-09-27T02:17:37.850Z,9.65
2022-09-27T02:20:44.986Z,9.63
2022-09-27T02:23:53.127Z,9.62
2022-09-27T02:27:06.085Z,9.61
2022-09-27T02:30:11.981Z,9.60
2022-09-27T02:33:13.763Z,9.58
2022-09-27T02:36:15.583Z,9.58
2022-09-27T02:39:18.650Z,9.56
2022-09-27T02:42:20.616Z,9.55
2022-09-27T02:45:22.694Z,9.55
2022-09-27T02:48:42.490Z,9.53
2022-09-27T02:52:00.645Z,9.51
2022-09-27T02:55:08.329Z,9.50
2022-09-27T02:58:19.026Z,9.48
2022-09-27T03:01:29.319Z,9.46
2022-09-27T03:04:56.012Z,9.44
2022-09-27T03:07:58.037Z,9.40
2022-09-27T03:10:59.713Z,9.39
2022-09-27T03:14:08.903Z,9.40
2022-09-27T03:17:11.126Z,9.39
2022-09-27T03:20:13.069Z,9.37
2022-09-27T03:23:14.669Z,9.36
2022-09-27T03:26:16.186Z,9.36
2022-09-27T03:29:17.735Z,9.34
2022-09-27T03:32:19.283Z,9.33
2022-09-27T03:35:21.220Z,9.33
2022-09-27T03:38:22.759Z,9.30
2022-09-27T03:41:24.396Z,9.29
2022-09-27T03:44:26.023Z,9.28
2022-09-27T03:47:27.814Z,9.26
2022-09-27T03:50:29.815Z,9.25
2022-09-27T03:53:31.466Z,9.22
2022-09-27T03:56:33.293Z,9.19
2022-09-27T03:59:34.887Z,9.18
2022-09-27T04:02:36.476Z,9.15
2022-09-27T04:05:38.076Z,9.12
2022-09-27T04:08:39.673Z,9.11
2022-09-27T04:11:41.245Z,9.09
2022-09-27T04:14:42.793Z,9.08
2022-09-27T04:17:44.330Z,9.06
2022-09-27T04:20:45.928Z,9.05
2022-09-27T04:23:47.519Z,9.05
2022-09-27T04:26:49.274Z,9.04
2022-09-27T04:29:50.837Z,9.04
2022-09-27T04:32:52.440Z,9.06
2022-09-27T04:36:12.511Z,9.05
2022-09-27T04:39:15.270Z,9.05
2022-09-27T04:42:17.733Z,9.06
2022-09-27T04:45:20.133Z,9.03
2022-09-27T04:48:21.940Z,9.05
2022-09-27T04:51:23.533Z,9.32
2022-09-27T04:54:25.290Z,9.43
2022-09-27T04:57:26.883Z,9.44
2022-09-27T05:00:29.173Z,9.40
2022-09-27T05:03:33.825Z,9.37
2022-09-27T05:06:35.630Z,9.33
2022-09-27T05:09:37.158Z,9.27
2022-09-27T05:12:38.714Z,9.23
2022-09-27T05:15:40.383Z,9.18
2022-09-27T05:18:42.352Z,9.13
2022-09-27T05:21:43.905Z,9.08
2022-09-27T05:24:45.865Z,9.04
2022-09-27T05:27:47.419Z,9.00
2022-09-27T05:30:49.030Z,8.93
2022-09-27T05:33:50.629Z,8.89
2022-09-27T05:36:52.264Z,8.86
2022-09-27T05:39:53.855Z,8.85
2022-09-27T05:42:55.945Z,8.86
2022-09-27T05:45:58.855Z,8.83
2022-09-27T05:49:00.563Z,8.81
2022-09-27T05:52:02.140Z,8.80
2022-09-27T05:55:03.985Z,8.80
2022-09-27T05:58:07.819Z,8.79
2022-09-27T06:01:10.120Z,8.78
2022-09-27T06:04:11.781Z,8.78
2022-09-27T06:07:13.341Z,8.78
2022-09-27T06:10:15.129Z,8.77
2022-09-27T06:13:17.733Z,8.75
2022-09-27T06:16:19.388Z,8.73
2022-09-27T06:19:21.615Z,8.73
2022-09-27T06:22:24.079Z,8.74
2022-09-27T06:25:26.950Z,8.73
2022-09-27T06:28:28.465Z,8.70
2022-09-27T06:31:30.218Z,8.71
2022-09-27T06:34:32.725Z,8.70
2022-09-27T06:37:34.732Z,8.70
2022-09-27T06:40:37.048Z,8.70
2022-09-27T06:43:38.637Z,8.72
2022-09-27T06:46:40.288Z,8.73
2022-09-27T06:49:41.829Z,8.75
2022-09-27T06:52:49.857Z,8.76
2022-09-27T06:55:52.121Z,8.77
2022-09-27T06:59:11.960Z,8.77
2022-09-27T07:02:14.132Z,8.76
2022-09-27T07:05:15.715Z,8.89
2022-09-27T07:08:17.291Z,9.11
2022-09-27T07:11:19.644Z,9.24
2022-09-27T07:14:21.904Z,9.41
2022-09-27T07:17:23.613Z,9.47
2022-09-27T07:20:26.383Z,9.49
2022-09-27T07:23:29.137Z,9.44
2022-09-27T07:26:30.688Z,9.40
2022-09-27T07:29:32.470Z,9.35
2022-09-27T07:32:35.663Z,9.30
2022-09-27T07:35:40.319Z,9.26
2022-09-27T07:38:42.422Z,9.25
2022-09-27T07:41:44.232Z,9.23
2022-09-27T07:44:45.811Z,9.21
2022-09-27T07:47:48.364Z,9.19
2022-09-27T07:50:49.964Z,9.17
2022-09-27T07:53:51.689Z,9.16
2022-09-27T07:56:53.228Z,9.16
2022-09-27T07:59:54.777Z,9.14
2022-09-27T08:02:56.352Z,9.12
2022-09-27T08:05:57.999Z,9.12
2022-09-27T08:08:59.795Z,9.12
2022-09-27T08:12:01.571Z,9.10
2022-09-27T08:15:04.698Z,9.10
2022-09-27T08:18:07.982Z,9.09
2022-09-27T08:21:09.672Z,9.40
2022-09-27T08:24:11.227Z,9.53
2022-09-27T08:27:13.465Z,9.55
2022-09-27T08:30:15.089Z,9.55
2022-09-27T08:33:17.451Z,9.52
2022-09-27T08:36:20.288Z,9.48
2022-09-27T08:39:24.919Z,9.46
2022-09-27T08:42:51.912Z,9.45
2022-09-27T08:46:03.997Z,9.45
2022-09-27T08:49:32.314Z,9.43
2022-09-27T08:52:43.588Z,9.43
2022-09-27T08:55:57.577Z,9.43
2022-09-27T08:59:07.512Z,9.43
2022-09-27T09:02:21.850Z,9.46
2022-09-27T09:05:34.868Z,9.48
2022-09-27T09:08:42.920Z,9.49
2022-09-27T09:12:42.865Z,9.49
2022-09-27T09:15:54.548Z,9.47
2022-09-27T09:19:28.568Z,9.48
2022-09-27T09:22:37.285Z,9.48
2022-09-27T09:26:02.345Z,9.47
2022-09-27T09:29:19.125Z,9.47
2022-09-27T09:32:35.684Z,9.46
2022-09-27T09:35:49.076Z,9.45
2022-09-27T09:39:05.525Z,9.42
2022-09-27T09:42:07.202Z,9.40
2022-09-27T09:45:31.706Z,9.37
2022-09-27T09:48:45.886Z,9.32
2022-09-27T09:51:56.794Z,9.31
2022-09-27T09:55:07.469Z,9.30
2022-09-27T09:58:19.929Z,9.31
2022-09-27T10:01:26.809Z,9.32
2022-09-27T10:04:29.124Z,9.33
2022-09-27T10:07:33.951Z,9.33
2022-09-27T10:10:35.556Z,9.31
2022-09-27T10:13:37.227Z,9.34
2022-09-27T10:16:42.630Z,9.36
2022-09-27T10:19:45.497Z,9.37
2022-09-27T10:22:54.554Z,9.37
2022-09-27T10:26:00.448Z,9.36
2022-09-27T10:29:37.887Z,9.39
2022-09-27T10:32:41.860Z,9.55
2022-09-27T10:35:49.537Z,9.56
2022-09-27T10:38:55.888Z,9.55
2022-09-27T10:41:57.465Z,9.53
2022-09-27T10:45:19.034Z,9.50
2022-09-27T10:48:24.988Z,9.45
2022-09-27T10:51:31.451Z,9.43
2022-09-27T10:54:36.388Z,9.38
2022-09-27T10:57:41.775Z,9.33
2022-09-27T11:00:55.343Z,9.31
2022-09-27T11:04:00.519Z,9.28
2022-09-27T11:07:20.190Z,9.23
2022-09-27T11:10:36.347Z,9.19
2022-09-27T11:13:39.550Z,9.18
2022-09-27T11:17:08.786Z,9.29
2022-09-27T11:20:38.803Z,9.45
2022-09-27T11:24:05.367Z,9.49
2022-09-27T11:27:06.872Z,9.47
2022-09-27T11:30:14.007Z,9.45
2022-09-27T11:33:34.561Z,9.46
2022-09-27T11:36:49.498Z,9.45
2022-09-27T11:40:22.155Z,9.44
2022-09-27T11:43:36.050Z,9.43
2022-09-27T11:46:41.824Z,9.43
2022-09-27T11:50:12.578Z,9.47
2022-09-27T11:53:35.784Z,9.49
2022-09-27T11:57:04.502Z,9.50
2022-09-27T12:00:14.938Z,9.53
2022-09-27T12:03:38.014Z,9.57
2022-09-27T12:07:34.982Z,9.69
2022-09-27T12:10:39.767Z,9.78
2022-09-27T12:13:47.620Z,9.86
2022-09-27T12:16:52.280Z,9.93
2022-09-27T12:19:58.474Z,10.00
2022-09-27T12:23:21.331Z,10.05
2022-09-27T12:26:28.387Z,10.10
2022-09-27T12:29:34.265Z,10.15
2022-09-27T12:32:45.973Z,10.14
2022-09-27T12:35:53.079Z,10.17
2022-09-27T12:39:08.835Z,10.19
2022-09-27T12:42:35.002Z,10.21
2022-09-27T12:45:51.171Z,10.24
2022-09-27T12:49:13.844Z,10.24
2022-09-27T12:52:25.381Z,10.20
2022-09-27T12:56:02.220Z,10.19
2022-09-27T12:59:17.572Z,10.21
2022-09-27T13:02:44.520Z,10.24
2022-09-27T13:06:03.458Z,10.35
2022-09-27T13:09:11.042Z,10.60
2022-09-27T13:12:12.781Z,10.65
2022-09-27T13:15:22.955Z,10.62
2022-09-27T13:18:36.542Z,10.56
2022-09-27T13:21:49.966Z,10.50
2022-09-27T13:24:51.798Z,10.46
2022-09-27T13:27:53.335Z,10.43
2022-09-27T13:30:56.535Z,10.44
2022-09-27T13:33:58.148Z,10.47
2022-09-27T13:37:36.945Z,10.68
2022-09-27T13:40:42.985Z,10.83
2022-09-27T13:43:44.928Z,10.82
2022-09-27T13:46:55.645Z,10.78
2022-09-27T13:50:20.422Z,10.71
2022-09-27T13:53:30.290Z,10.64
2022-09-27T13:56:46.612Z,10.55
2022-09-27T13:59:53.012Z,10.48
2022-09-27T14:03:01.097Z,10.44
2022-09-27T14:06:08.917Z,10.39
2022-09-27T14:09:41.253Z,10.35
2022-09-27T14:12:44.337Z,10.29
2022-09-27T14:15:47.565Z,10.24
2022-09-27T14:18:53.941Z,10.21
2022-09-27T14:21:56.075Z,10.17
2022-09-27T14:24:58.063Z,10.12
2022-09-27T14:28:00.535Z,10.05
2022-09-27T14:31:25.487Z,9.97
2022-09-27T14:34:27.058Z,9.89
2022-09-27T14:37:29.902Z,9.83
2022-09-27T14:40:40.122Z,9.80
2022-09-27T14:43:45.301Z,9.79
2022-09-27T14:46:47.994Z,9.78
2022-09-27T14:50:00.240Z,9.82
2022-09-27T14:53:05.150Z,9.86
2022-09-27T14:56:08.287Z,9.86
2022-09-27T14:59:22.436Z,9.88
2022-09-27T15:02:26.467Z,9.90
2022-09-27T15:05:32.566Z,9.89
2022-09-27T15:08:34.847Z,9.90
2022-09-27T15:11:37.515Z,9.90
2022-09-27T15:14:42.690Z,9.87
2022-09-27T15:17:44.690Z,9.85
2022-09-27T15:20:54.166Z,9.82
2022-09-27T15:23:55.726Z,9.81
2022-09-27T15:26:58.858Z,9.81
2022-09-27T15:30:00.563Z,9.84
2022-09-27T15:33:03.475Z,9.90
2022-09-27T15:36:07.937Z,9.97
2022-09-27T15:39:13.994Z,10.05
2022-09-27T15:42:19.607Z,10.14
2022-09-27T15:45:51.491Z,10.20
2022-09-27T15:49:21.293Z,10.21
2022-09-27T15:52:52.260Z,10.19
2022-09-27T15:55:53.840Z,10.16
2022-09-27T15:58:55.447Z,10.16
2022-09-27T16:01:59.283Z,10.16
2022-09-27T16:05:01.996Z,10.17
2022-09-27T16:08:03.512Z,10.18
2022-09-27T16:11:05.775Z,10.19
2022-09-27T16:14:07.388Z,10.19
2022-09-27T16:17:10.348Z,10.20
2022-09-27T16:20:23.196Z,10.19
2022-09-27T16:23:24.884Z,10.19
2022-09-27T16:26:26.568Z,10.19
2022-09-27T16:29:28.244Z,10.19
2022-09-27T16:32:30.357Z,10.18
2022-09-27T16:35:32.120Z,10.18
2022-09-27T16:38:33.828Z,10.16
2022-09-27T16:41:35.797Z,10.12
2022-09-27T16:44:37.499Z,10.05
2022-09-27T16:47:39.437Z,10.01
2022-09-27T16:50:59.712Z,9.96
2022-09-27T16:54:02.160Z,9.90
2022-09-27T16:57:03.955Z,9.85
2022-09-27T17:00:06.468Z,9.82
2022-09-27T17:03:09.069Z,9.78
2022-09-27T17:06:11.489Z,9.74
2022-09-27T17:09:13.008Z,9.68
2022-09-27T17:12:15.206Z,9.62
2022-09-27T17:15:17.347Z,9.57
2022-09-27T17:18:18.982Z,9.51
2022-09-27T17:21:20.766Z,9.47
2022-09-27T17:24:22.661Z,9.44
2022-09-27T17:27:28.467Z,9.40
2022-09-27T17:30:29.978Z,9.61
2022-09-27T17:33:31.956Z,9.54
2022-09-27T17:36:37.423Z,9.49
2022-09-27T17:39:39.019Z,9.43
2022-09-27T17:42:40.557Z,9.36
2022-09-27T17:45:42.085Z,9.32
2022-09-27T17:49:02.402Z,9.29
2022-09-27T17:52:03.952Z,9.27
2022-09-27T17:55:05.793Z,9.24
2022-09-27T17:58:07.408Z,9.22
2022-09-27T18:01:08.965Z,9.22
2022-09-27T18:04:13.311Z,9.18
2022-09-27T18:07:14.997Z,9.13
2022-09-27T18:10:17.813Z,9.10
2022-09-27T18:13:19.590Z,9.10
2022-09-27T18:16:21.935Z,9.05
2022-09-27T18:19:24.639Z,9.03
2022-09-27T18:22:26.986Z,9.00
2022-09-27T18:25:28.524Z,8.97
2022-09-27T18:28:31.064Z,8.95
2022-09-27T18:31:33.245Z,8.92
2022-09-27T18:34:34.771Z,8.91
2022-09-27T18:37:36.361Z,8.93
2022-09-27T18:40:55.805Z,8.93
2022-09-27T18:44:01.249Z,8.91
2022-09-27T18:47:03.082Z,8.90
2022-09-27T18:50:05.192Z,8.86
2022-09-27T18:53:08.301Z,8.83
2022-09-27T18:56:13.353Z,8.81
2022-09-27T18:59:15.322Z,8.80
2022-09-27T19:02:16.978Z,8.75
2022-09-27T19:05:18.586Z,8.72
2022-09-27T19:08:20.110Z,8.69
2022-09-27T19:11:22.387Z,8.62
2022-09-27T19:14:23.986Z,8.57
2022-09-27T19:17:25.516Z,8.55
2022-09-27T19:20:27.112Z,8.54
2022-09-27T19:23:29.996Z,8.52
2022-09-27T19:26:31.564Z,8.50
2022-09-27T19:29:33.089Z,8.46
2022-09-27T19:32:34.627Z,8.42
2022-09-27T19:35:36.270Z,8.38
2022-09-27T19:38:38.800Z,8.37
2022-09-27T19:41:40.417Z,8.63
2022-09-27T19:44:42.414Z,8.84
2022-09-27T19:47:44.103Z,8.91
2022-09-27T19:50:56.017Z,8.93
2022-09-27T19:53:58.143Z,8.92
2022-09-27T19:56:59.998Z,8.89
2022-09-27T20:00:02.152Z,8.86
2022-09-27T20:03:04.224Z,8.84
2022-09-27T20:06:07.902Z,8.82
2022-09-27T20:09:10.016Z,8.81
2022-09-27T20:12:11.628Z,8.79
2022-09-27T20:15:14.877Z,8.76
2022-09-27T20:18:16.871Z,8.71
2022-09-27T20:21:20.173Z,8.66
2022-09-27T20:24:21.788Z,8.63
2022-09-27T20:27:23.337Z,8.61
2022-09-27T20:30:25.104Z,8.60
2022-09-27T20:33:44.228Z,8.58
2022-09-27T20:36:45.763Z,8.56
2022-09-27T20:39:47.269Z,8.52
2022-09-27T20:42:48.817Z,8.50
2022-09-27T20:45:50.325Z,8.46
2022-09-27T20:49:00.897Z,8.45
2022-09-27T20:52:02.617Z,8.43
2022-09-27T20:55:04.449Z,8.41
2022-09-27T20:58:05.985Z,8.39
2022-09-27T21:01:07.874Z,8.38
2022-09-27T21:04:09.926Z,8.37
2022-09-27T21:07:11.513Z,8.32
2022-09-27T21:10:13.008Z,8.29
2022-09-27T21:13:14.621Z,8.23
2022-09-27T21:16:22.546Z,8.20
2022-09-27T21:19:24.738Z,8.19
2022-09-27T21:22:26.733Z,8.18
2022-09-27T21:25:28.280Z,8.17
2022-09-27T21:28:34.489Z,8.16
2022-09-27T21:31:36.333Z,8.12
2022-09-27T21:34:37.923Z,8.11
2022-09-27T21:37:39.439Z,8.11
2022-09-27T21:40:41.074Z,8.10
2022-09-27T21:43:44.690Z,8.09
2022-09-27T21:46:46.365Z,8.08
2022-09-27T21:49:47.880Z,8.08
2022-09-27T21:52:49.640Z,8.06
2022-09-27T21:55:57.678Z,8.05
2022-09-27T21:58:59.463Z,8.04
2022-09-27T22:02:01.074Z,8.02
2022-09-27T22:05:02.720Z,7.99
2022-09-27T22:08:04.275Z,7.95
2022-09-27T22:11:06.415Z,7.95
2022-09-27T22:14:08.011Z,7.96
2022-09-27T22:17:09.512Z,8.14
2022-09-27T22:20:11.152Z,8.12
2022-09-27T22:23:12.736Z,8.10
2022-09-27T22:26:15.837Z,8.06
2022-09-27T22:29:18.038Z,8.00
2022-09-27T22:32:19.694Z,7.95
2022-09-27T22:35:21.897Z,7.90
2022-09-27T22:38:23.423Z,7.83
2022-09-27T22:41:25.554Z,7.79
2022-09-27T22:44:27.109Z,7.73
2022-09-27T22:47:29.121Z,7.67
2022-09-27T22:50:30.997Z,7.63
2022-09-27T22:53:32.636Z,7.59
2022-09-27T22:56:34.295Z,7.56
2022-09-27T22:59:35.853Z,7.52
2022-09-27T23:02:37.517Z,7.49
2022-09-27T23:05:39.067Z,7.44
2022-09-27T23:08:41.485Z,7.41
2022-09-27T23:11:43.735Z,7.37
2022-09-27T23:14:45.232Z,7.34
2022-09-27T23:17:50.363Z,7.29
2022-09-27T23:20:51.863Z,7.27
2022-09-27T23:23:59.634Z,7.23
2022-09-27T23:27:19.785Z,7.18
2022-09-27T23:30:22.644Z,7.11
2022-09-27T23:33:26.608Z,7.06
2022-09-27T23:36:28.365Z,7.01
2022-09-27T23:39:29.871Z,6.97
2022-09-27T23:42:31.432Z,6.92
2022-09-27T23:45:33.457Z,6.89
2022-09-27T23:48:36.098Z,6.83
2022-09-27T23:51:37.624Z,6.79
2022-09-27T23:54:39.199Z,6.73
2022-09-27T23:57:40.720Z,6.66
